Latest Weather Observations for Neptune Island

IDS60801

Issued at 12:35 pm CST Friday 25 July 2014 (issued every 30 minutes, with the page automatically refreshed every 10 minutes)

About weather observations | Map of weather stations | Latest weather observations for SA | Other Formats
Station Details ID: 018115 Name: NEPTUNE ISLAND Lat: -35.34 Lon: 136.12 Height: 32.0 m
Data from the previous 72 hours. | See also: Recent months at Neptune Island
Date/Time
CST
Temp
°C
App
Temp
°C
Dew
Point
Rel
Hum
%
Delta-T
°C
Wind Press
QNH
hPa
Press
MSL
hPa
Rain
since 9 am
mm
Dir
 
Spd
km/h
Gust
km/h
Spd
kts
Gust
kts
25/12:30pm 15.9 12.5 11.3 74 2.5 SW 20 24 11 13 1018.3 - 0.0
25/12:00pm 15.9 12.3 11.7 76 2.3 SW 22 26 12 14 1018.4 1018.4 0.0
25/11:30am 16.2 14.1 12.4 78 2.1 SW 15 17 8 9 1018.5 - 0.0
25/11:00am 15.3 12.2 11.5 78 2.0 SW 19 22 10 12 1018.4 - 0.0
25/10:30am 15.4 12.2 11.8 79 1.9 WSW 20 24 11 13 1018.4 - 0.0
25/10:00am 14.8 11.3 11.0 78 2.0 WSW 20 26 11 14 1018.2 - 0.0
25/09:30am 14.7 10.4 10.7 77 2.1 WSW 24 28 13 15 1017.8 - 0.0
25/09:00am 14.4 10.1 10.6 78 2.0 WSW 24 28 13 15 1017.4 1017.4 1.6
25/08:30am 14.1 9.7 10.3 78 2.0 SW 24 28 13 15 1017.1 - 1.6
25/08:00am 13.9 9.5 10.3 79 1.9 SW 24 28 13 15 1016.7 - 1.6
25/07:30am 13.8 9.3 10.2 79 1.9 WSW 24 28 13 15 1016.1 - 1.6
25/07:00am 13.8 9.3 10.2 79 1.9 SW 24 28 13 15 1015.7 - 1.6
25/06:30am 13.9 9.5 10.5 80 1.8 SW 24 28 13 15 1015.3 - 1.6
25/06:00am 14.0 9.2 10.4 79 1.9 SW 26 30 14 16 1014.8 1014.8 1.6
25/05:30am 14.0 8.9 10.6 80 1.8 SW 28 32 15 17 1014.4 - 1.6
25/05:00am 14.1 9.5 10.9 81 1.7 SW 26 30 14 16 1014.0 - 1.6
25/04:30am 14.0 9.7 10.8 81 1.7 SW 24 28 13 15 1013.8 - 1.6
25/04:00am 14.0 9.3 10.8 81 1.7 WSW 26 30 14 16 1013.6 - 1.6
25/03:30am 13.8 9.4 10.4 80 1.8 SW 24 28 13 15 1013.2 - 1.6
25/03:00am 13.8 9.1 10.6 81 1.7 WSW 26 30 14 16 1013.0 1013.0 1.6
 
Date/Time
CST
Temp
°C
App
Temp
°C
Dew
Point
Rel
Hum
%
Delta-T
°C
Wind Press
QNH
hPa
Press
MSL
hPa
Rain
since 9 am
mm
Dir
 
Spd
km/h
Gust
km/h
Spd
kts
Gust
kts
24/11:30pm 14.2 9.5 10.6 79 1.9 WSW 26 32 14 17 1012.1 - 1.0
24/11:00pm 14.0 8.7 10.0 77 2.1 WSW 28 32 15 17 1012.0 - 1.0
24/10:30pm 14.0 9.2 10.4 79 1.9 WSW 26 30 14 16 1011.8 - 1.0
24/10:00pm 14.1 9.3 10.3 78 2.0 SW 26 30 14 16 1011.5 - 1.0
24/09:30pm 14.2 9.4 10.4 78 2.0 WSW 26 32 14 17 1011.3 - 1.0
24/09:00pm 14.2 9.4 10.2 77 2.1 SW 26 30 14 16 1011.1 1011.1 1.0
24/08:30pm 14.3 9.6 10.5 78 2.0 WSW 26 30 14 16 1010.9 - 1.0
24/08:00pm 14.1 8.9 10.3 78 2.0 WSW 28 32 15 17 1010.7 - 1.0
24/07:30pm 14.1 8.9 10.3 78 2.0 WSW 28 32 15 17 1010.3 - 1.0
24/07:00pm 14.2 9.0 10.4 78 2.0 WSW 28 32 15 17 1009.9 - 1.0
24/06:30pm 14.3 8.5 10.7 79 1.9 WSW 32 35 17 19 1009.4 - 1.0
24/06:00pm 14.1 8.2 10.5 79 1.9 WSW 32 35 17 19 1008.9 1008.9 1.0
24/05:30pm 14.1 8.0 10.3 78 2.0 WSW 33 37 18 20 1008.5 - 1.0
24/05:00pm 14.4 9.0 10.8 79 1.9 WSW 30 37 16 20 1008.2 - 1.0
24/04:30pm 14.6 8.6 10.8 78 2.0 WSW 33 37 18 20 1007.8 - 1.0
24/04:00pm 14.8 8.4 10.8 77 2.1 WSW 35 39 19 21 1007.4 - 1.0
24/03:30pm 15.0 9.1 11.0 77 2.1 WSW 33 41 18 22 1007.1 - 1.0
24/03:00pm 14.8 8.5 11.0 78 2.0 SW 35 41 19 22 1006.6 1006.6 1.0
24/02:30pm 14.3 9.1 11.6 84 1.4 SW 30 35 16 19 1006.3 - 1.0
24/02:00pm 13.3 8.7 11.0 86 1.2 WSW 26 32 14 17 1006.1 - 1.0
24/01:30pm 13.6 8.6 11.1 85 1.3 W 28 35 15 19 1006.1 - 1.0
24/01:00pm 13.0 7.4 10.2 83 1.4 W 30 35 16 19 1006.4 - 0.2
24/12:30pm 15.2 9.5 11.0 76 2.2 WSW 32 37 17 20 1006.3 - 0.0
24/12:00pm 15.1 9.1 10.7 75 2.3 WSW 33 39 18 21 1006.7 1006.7 0.0
24/11:30am 14.9 9.4 10.5 75 2.3 WSW 30 35 16 19 1006.8 - 0.0
24/11:00am 14.6 9.0 10.2 75 2.3 WSW 30 35 16 19 1006.8 - 0.0
24/10:30am 14.6 9.0 10.2 75 2.3 WSW 30 35 16 19 1006.5 - 0.0
24/10:00am 14.3 8.6 9.7 74 2.4 WSW 30 35 16 19 1006.3 - 0.0
24/09:30am 14.1 8.1 10.1 77 2.1 WSW 32 35 17 19 1006.0 - 0.0
24/09:00am 13.9 7.9 10.1 78 2.0 WSW 32 37 17 20 1005.5 1005.5 14.8
24/08:30am 13.7 8.1 10.3 80 1.8 WSW 30 35 16 19 1005.2 - 14.8
24/08:00am 13.5 7.4 10.5 82 1.6 WSW 33 39 18 21 1004.9 - 14.8
24/07:30am 13.4 7.3 10.4 82 1.6 WSW 33 39 18 21 1004.5 - 14.8
24/07:00am 13.4 8.3 10.6 83 1.5 WSW 28 35 15 19 1004.3 - 14.8
24/06:30am 13.2 8.1 10.6 84 1.4 WSW 28 33 15 18 1004.0 - 14.8
24/06:00am 13.0 7.6 10.9 87 1.1 WSW 30 33 16 18 1003.8 1003.8 14.8
24/05:30am 12.6 8.7 10.8 89 0.9 WSW 22 26 12 14 1003.6 - 14.8
24/05:00am 12.6 10.0 10.8 89 0.9 WSW 15 20 8 11 1003.4 - 14.6
24/04:30am 12.2 9.9 10.6 90 0.8 WSW 13 19 7 10 1003.2 - 14.6
24/04:00am 11.9 10.8 10.5 91 0.7 W 7 13 4 7 1003.1 - 14.6
24/03:30am 11.6 10.9 10.2 91 0.7 E 4 7 2 4 1002.8 - 14.6
24/03:00am 11.6 9.6 10.2 91 0.7 E 11 15 6 8 1003.0 1003.0 14.6
24/02:30am 11.7 8.2 10.3 91 0.7 ENE 19 22 10 12 1002.7 - 14.6
24/02:00am 11.8 7.0 10.4 91 0.7 ENE 26 32 14 17 1002.6 - 14.6
24/01:30am 11.7 5.8 10.3 91 0.7 ENE 32 35 17 19 1002.7 - 14.6
24/01:00am 12.0 5.5 10.4 90 0.8 NE 35 39 19 21 1002.9 - 14.4
24/12:30am 11.9 6.3 10.1 89 0.9 NNE 30 39 16 21 1003.2 - 13.6
24/12:00am 12.3 6.3 10.2 87 1.1 ENE 32 37 17 20 1003.4 1003.4 12.0
 
Date/Time
CST
Temp
°C
App
Temp
°C
Dew
Point
Rel
Hum
%
Delta-T
°C
Wind Press
QNH
hPa
Press
MSL
hPa
Rain
since 9 am
mm
Dir
 
Spd
km/h
Gust
km/h
Spd
kts
Gust
kts
23/11:30pm 12.6 6.1 10.5 87 1.1 NE 35 43 19 23 1003.8 - 12.0
23/11:00pm 12.5 6.5 10.2 86 1.2 NNE 32 44 17 24 1004.2 - 12.0
23/10:30pm 12.8 6.7 10.5 86 1.2 NNE 33 46 18 25 1004.5 - 12.0
23/10:00pm 12.4 7.3 10.5 88 1.0 NE 28 39 15 21 1004.7 - 12.0
23/09:30pm 11.9 6.3 10.0 88 1.0 NNE 30 35 16 19 1004.9 - 12.0
23/09:00pm 11.6 5.4 9.9 89 0.9 N 33 39 18 21 1005.3 1005.3 11.8
23/08:30pm 11.4 4.7 9.5 88 1.0 N 35 48 19 26 1005.6 - 10.8
23/08:25pm 11.7 6.4 9.8 88 1.0 N 28 46 15 25 1005.7 - 10.4
23/08:00pm 11.8 5.6 9.4 85 1.2 N 32 39 17 21 1006.0 - 7.8
23/07:50pm 12.4 5.6 9.2 81 1.6 N 35 46 19 25 1006.0 - 5.2
23/07:30pm 13.4 6.2 9.3 76 2.1 NNE 37 46 20 25 1005.8 - 4.8
23/07:00pm 13.6 6.1 9.5 76 2.1 NNE 39 50 21 27 1005.6 - 4.8
23/06:30pm 13.5 6.8 9.6 77 2.0 NNE 35 50 19 27 1005.2 - 4.8
23/06:00pm 13.4 5.1 10.0 80 1.8 NNE 44 54 24 29 1005.3 1005.3 4.8
23/05:30pm 13.2 5.1 10.2 82 1.6 N 43 48 23 26 1005.9 - 4.8
23/05:00pm 13.1 4.1 10.1 82 1.5 N 48 59 26 32 1006.0 - 4.8
23/04:30pm 13.8 3.2 9.8 77 2.1 NNE 56 65 30 35 1005.9 - 4.6
23/04:00pm 13.9 5.8 10.9 82 1.6 NNE 44 61 24 33 1006.3 - 4.6
23/03:39pm 13.4 5.5 10.9 85 1.3 NE 43 61 23 33 1006.5 - 4.6
23/03:30pm 13.2 5.3 10.7 85 1.3 NE 43 59 23 32 1006.4 - 4.6
23/03:00pm 13.3 3.7 10.7 84 1.4 NE 52 72 28 39 1006.5 1006.5 4.6
23/02:42pm 13.5 3.8 10.3 81 1.7 NE 52 70 28 38 1006.5 - 4.6
23/02:30pm 13.6 3.1 10.4 81 1.7 NE 56 67 30 36 1006.7 - 4.6
23/02:00pm 13.4 3.4 10.9 85 1.3 ENE 54 63 29 34 1007.3 - 4.4
23/01:30pm 13.4 2.2 11.1 86 1.2 ENE 61 70 33 38 1007.6 - 4.2
23/01:00pm 13.0 2.5 10.9 87 1.1 ENE 57 69 31 37 1008.2 - 4.2
23/12:30pm 12.5 2.4 10.4 87 1.1 NE 54 63 29 34 1009.4 - 3.8
23/12:09pm 12.6 1.6 10.5 87 1.1 NE 59 67 32 36 1010.1 - 3.4
23/12:02pm 12.7 5.6 10.8 88 1.0 NNE 39 57 21 31 1010.9 - 3.4
23/12:00pm 12.5 4.9 10.4 87 1.1 NNE 41 57 22 31 1011.1 1011.1 3.4
23/11:45am 12.5 4.4 10.6 88 1.0 NNE 44 63 24 34 1011.7 - 3.0
23/11:30am 12.5 1.5 10.6 88 1.0 NNE 59 70 32 38 1012.0 - 3.0
23/11:00am 12.5 1.8 10.2 86 1.2 NNE 57 69 31 37 1012.5 - 2.2
23/10:30am 12.7 2.5 9.9 83 1.4 N 54 63 29 34 1013.1 - 1.4
23/10:00am 13.7 3.8 9.7 77 2.1 NNE 52 65 28 35 1013.4 - 0.0
23/09:30am 14.5 6.7 9.7 73 2.5 NNE 41 52 22 28 1013.7 - 0.0
23/09:00am 14.8 7.6 9.0 68 3.0 NNE 37 54 20 29 1013.8 1013.8 0.0
23/08:59am 14.9 8.2 9.5 70 2.8 NNE 35 54 19 29 1013.8 - 0.0
23/08:30am 15.0 8.5 9.1 68 3.0 NNE 33 39 18 21 1014.1 - 0.0
23/08:00am 15.0 9.8 8.9 67 3.1 NNE 26 33 14 18 1013.8 - 0.0
23/07:30am 15.0 8.7 8.9 67 3.1 N 32 35 17 19 1014.1 - 0.0
23/07:00am 15.0 8.4 10.0 72 2.6 N 35 43 19 23 1014.2 - 0.0
23/06:30am 15.0 10.1 10.0 72 2.6 NNE 26 41 14 22 1014.0 - 0.0
23/06:00am 14.7 9.4 9.7 72 2.6 NNE 28 37 15 20 1014.2 1014.2 0.0
23/05:30am 14.8 10.0 10.2 74 2.4 NNE 26 39 14 21 1014.4 - 0.0
23/05:00am 14.6 9.4 10.2 75 2.3 NE 28 39 15 21 1014.3 - 0.0
23/04:30am 14.7 10.0 10.5 76 2.2 NNE 26 35 14 19 1014.6 - 0.0
23/04:00am 14.7 10.7 10.3 75 2.3 NNE 22 32 12 17 1014.8 - 0.0
23/03:30am 14.7 10.0 10.5 76 2.2 NE 26 33 14 18 1015.4 - 0.0
23/03:00am 15.0 11.0 10.6 75 2.3 NE 22 28 12 15 1015.7 1015.7 0.0
23/02:30am 14.8 10.3 10.2 74 2.4 NE 24 30 13 16 1016.0 - 0.0
23/02:00am 14.8 9.5 9.8 72 2.6 NE 28 33 15 18 1016.1 - 0.0
23/01:30am 14.9 8.2 9.5 70 2.8 NE 35 39 19 21 1016.4 - 0.0
23/01:00am 15.0 8.8 10.0 72 2.6 NE 33 35 18 19 1016.6 - 0.0
23/12:30am 14.8 8.5 9.8 72 2.6 NE 33 39 18 21 1016.8 - 0.0
23/12:00am 14.7 8.6 9.7 72 2.6 NE 32 35 17 19 1017.4 1017.4 0.0
 
Date/Time
CST
Temp
°C
App
Temp
°C
Dew
Point
Rel
Hum
%
Delta-T
°C
Wind Press
QNH
hPa
Press
MSL
hPa
Rain
since 9 am
mm
Dir
 
Spd
km/h
Gust
km/h
Spd
kts
Gust
kts
22/11:30pm 14.9 9.7 10.1 73 2.5 NE 28 35 15 19 1018.1 - 0.0
22/11:00pm 14.9 10.5 10.3 74 2.4 NE 24 32 13 17 1018.3 - 0.0
22/10:30pm 14.9 9.3 10.3 74 2.4 NE 30 33 16 18 1018.3 - 0.0
22/10:00pm 14.8 9.1 9.8 72 2.6 ENE 30 33 16 18 1018.4 - 0.0
22/09:30pm 14.8 8.6 9.2 69 2.9 NE 32 37 17 20 1018.6 - 0.0
22/09:00pm 14.7 8.4 8.9 68 2.9 ENE 32 35 17 19 1018.9 1018.9 0.0
22/08:30pm 15.1 8.6 8.1 63 3.5 ENE 32 35 17 19 1018.9 - 0.0
22/08:00pm 14.9 8.2 7.5 61 3.7 ENE 32 35 17 19 1019.0 - 0.0
22/07:30pm 14.6 8.3 7.6 63 3.5 ENE 30 32 16 17 1018.8 - 0.0
22/07:00pm 14.5 8.6 7.5 63 3.5 ENE 28 30 15 16 1019.2 - 0.0
22/06:30pm 14.3 9.0 8.5 68 2.9 NE 26 30 14 16 1019.2 - 0.0
22/06:00pm 14.0 10.0 8.2 68 2.9 NE 19 26 10 14 1019.3 1019.3 0.0
22/05:30pm 14.2 10.2 8.2 67 3.0 NNE 19 26 10 14 1019.3 - 0.0
22/05:00pm 14.3 10.3 8.3 67 3.0 NNE 19 24 10 13 1019.5 - 0.0
22/04:30pm 14.5 10.3 8.2 66 3.2 NNE 20 28 11 15 1019.4 - 0.0
22/04:00pm 14.8 9.4 7.8 63 3.5 NE 26 32 14 17 1018.7 - 0.0
22/03:30pm 15.4 11.0 8.9 65 3.3 NE 22 30 12 16 1018.9 - 0.0
22/03:00pm 15.6 11.8 9.1 65 3.3 NE 19 24 10 13 1019.3 1019.3 0.0
22/02:30pm 15.3 11.3 8.1 62 3.6 NNE 19 26 10 14 1019.4 - 0.0
22/02:00pm 15.7 11.8 8.7 63 3.6 NNE 19 26 10 14 1019.7 - 0.0
22/01:30pm 15.7 12.4 9.6 67 3.2 NNE 17 22 9 12 1020.2 - 0.0
22/01:00pm 15.7 12.1 9.8 68 3.1 NNE 19 26 10 14 1020.7 - 0.0

Other Formats:

Comma delimited format used in spreadsheet applications
http://www.bom.gov.au/fwo/IDS60801/IDS60801.94804.axf

JavaScript Object Notation format (JSON) in row-major order
http://www.bom.gov.au/fwo/IDS60801/IDS60801.94804.json